KLNR/LNR METAR and TAF weather

Enter ICAO airport designator
Station Type Date Time Source
KLNR METAR 2021/05/12 04:56 UTC NOAA

KLNR 120456Z AUTO 00000KT 10SM CLR 03/00 A3041 RMK AO2 SLP296 T00330000


Station Type Date Time Source
KLNR Decoded METAR 2021/05/12 04:56 UTC NOAA

LONE ROCK TRI-COUNTY REG, WI, United States (KLNR) 43-13N 090-11W 217M
May 12, 2021 - 12:56 AM EDT / 2021.05.12 0456 UTC
Wind: Calm:0
Visibility: 10 mile(s):0
Sky conditions: clear
Temperature: 37.9 F (3.3 C)
Dew Point: 32.0 F (0.0 C)
Relative Humidity: 78%
Pressure (altimeter): 30.41 in. Hg (1029 hPa)
ob: KLNR 120456Z AUTO 00000KT 10SM CLR 03/00 A3041 RMK AO2 SLP296 T00330000
cycle: 5

Station Type Date Time Source
KLNR TAF UTC NOAA

Error!

Example: see airport list